Time;durP1;ratioP1;P1;durP2;ratioP2;P2;SDS_P1;SDS_P2;PMS_P1;PMS_P2;Temp;Humidity;BMP_temperature;BMP_pressure;BME280_temperature;BME280_humidity;BME280_pressure;Samples;Min_cycle;Max_cycle;Signal;HPM_P1;HPM_P2
2022/07/15 00:03:02;;;;;;;15.00;5.40;;;;;;;12.34;91.10;102044.09;10509592;28;20487;-76
2022/07/15 00:08:03;;;;;;;8.13;5.05;;;;;;;12.54;90.21;102048.72;10530908;28;20124;-76
2022/07/15 00:13:04;;;;;;;8.57;4.88;;;;;;;12.77;89.17;102043.06;10541342;28;20049;-77
2022/07/15 00:18:05;;;;;;;9.23;5.18;;;;;;;13.01;87.55;102049.63;10546791;28;20126;-75
2022/07/15 00:23:06;;;;;;;10.88;5.20;;;;;;;13.17;86.14;102046.16;10548305;28;20513;-75
2022/07/15 00:28:07;;;;;;;15.48;5.07;;;;;;;13.25;85.10;102043.94;10549485;28;20035;-75
2022/07/15 00:33:08;;;;;;;8.50;4.97;;;;;;;13.26;85.43;102041.41;10551642;28;20054;-75
2022/07/15 00:38:09;;;;;;;10.02;4.75;;;;;;;13.26;84.61;102048.38;10551962;28;20387;-76
2022/07/15 00:43:09;;;;;;;14.00;6.07;;;;;;;13.22;83.78;102042.06;10568411;28;20027;-75
2022/07/15 00:48:10;;;;;;;8.63;5.03;;;;;;;13.17;83.91;102044.41;10527467;28;20040;-76
2022/07/15 00:53:13;;;;;;;9.25;3.83;;;;;;;13.14;83.11;102049.50;10508137;28;20042;-75
2022/07/15 00:58:18;;;;;;;13.82;5.30;;;;;;;13.09;82.83;102032.56;10528910;28;20043;-76
2022/07/15 01:03:19;;;;;;;12.75;5.18;;;;;;;12.90;82.41;102034.16;10533489;28;20036;-75
2022/07/15 01:08:19;;;;;;;12.02;4.15;;;;;;;12.58;83.36;102042.84;10523765;28;20391;-76
2022/07/15 01:13:20;;;;;;;9.52;4.70;;;;;;;12.18;84.13;102042.28;10526452;28;20060;-76
2022/07/15 01:18:21;;;;;;;9.35;4.15;;;;;;;12.01;85.16;102051.75;10511932;28;20035;-76
2022/07/15 01:23:21;;;;;;;10.82;3.75;;;;;;;11.77;86.18;102053.75;10567772;28;20180;-76
2022/07/15 01:28:22;;;;;;;9.27;5.07;;;;;;;11.58;87.04;102050.00;10514490;28;20043;-75
2022/07/15 01:33:22;;;;;;;11.10;4.65;;;;;;;11.34;87.34;102045.81;10481821;28;20037;-76
2022/07/15 01:38:23;;;;;;;11.48;4.70;;;;;;;11.10;88.47;102054.81;10529369;28;20123;-75
2022/07/15 01:43:23;;;;;;;10.95;4.60;;;;;;;10.87;89.07;102058.59;10565522;28;20131;-75
2022/07/15 01:53:43;;;;;;;15.40;4.90;;;;;;;10.48;92.04;102063.88;10513617;28;20044;-75
2022/07/15 01:58:43;;;;;;;7.80;6.03;;;;;;;10.36;93.16;102065.63;10540127;28;20036;-75
2022/07/15 02:03:45;;;;;;;13.75;5.35;;;;;;;10.20;93.70;102059.34;10507365;28;20044;-75
2022/07/15 02:08:46;;;;;;;8.02;5.32;;;;;;;10.14;94.94;102065.09;10549382;28;20036;-75
2022/07/15 02:13:46;;;;;;;12.98;5.63;;;;;;;10.03;95.11;102062.53;10481938;28;20120;-75
2022/07/15 02:18:47;;;;;;;10.20;5.18;;;;;;;9.91;95.77;102060.88;10531581;28;20404;-75
2022/07/15 02:23:47;;;;;;;13.73;6.68;;;;;;;9.81;96.75;102063.66;10544425;28;20067;-75
2022/07/15 02:28:48;;;;;;;11.70;6.47;;;;;;;9.74;97.10;102070.16;10547848;28;20066;-75
2022/07/15 02:33:49;;;;;;;10.80;6.60;;;;;;;9.68;98.00;102062.78;10566505;28;20122;-76
2022/07/15 02:38:50;;;;;;;19.17;5.85;;;;;;;9.63;98.64;102069.41;10528154;28;20028;-75
2022/07/15 02:43:51;;;;;;;14.23;6.70;;;;;;;9.53;98.70;102072.16;10565431;28;20050;-75
2022/07/15 02:48:51;;;;;;;13.98;7.68;;;;;;;9.49;99.41;102072.75;10547027;28;20046;-75
2022/07/15 02:53:52;;;;;;;16.05;9.73;;;;;;;9.46;100.00;102081.28;10568552;28;20032;-75
2022/07/15 02:58:52;;;;;;;14.65;7.57;;;;;;;9.42;100.00;102084.47;10546975;28;20059;-75
2022/07/15 03:03:53;;;;;;;22.33;8.55;;;;;;;9.39;100.00;102094.69;10531465;28;20051;-76
2022/07/15 03:08:53;;;;;;;22.95;10.60;;;;;;;9.36;100.00;102105.81;10567430;28;20044;-75
2022/07/15 03:13:54;;;;;;;17.67;9.55;;;;;;;9.36;100.00;102098.00;10572949;28;20478;-75
2022/07/15 03:18:54;;;;;;;19.10;8.82;;;;;;;9.39;100.00;102099.94;10549215;28;20050;-75
2022/07/15 03:23:55;;;;;;;20.65;9.27;;;;;;;9.35;100.00;102103.13;10512252;28;20925;-75
2022/07/15 03:28:57;;;;;;;18.40;8.75;;;;;;;9.29;100.00;102110.50;10511807;28;20040;-75
2022/07/15 03:33:58;;;;;;;17.42;8.95;;;;;;;9.28;100.00;102121.75;10529504;28;20532;-75
2022/07/15 03:38:58;;;;;;;18.33;8.88;;;;;;;9.34;100.00;102125.72;10550842;28;20039;-75
2022/07/15 03:44:00;;;;;;;16.60;9.32;;;;;;;9.38;100.00;102127.75;10571951;28;20032;-76
2022/07/15 03:49:00;;;;;;;20.50;8.82;;;;;;;9.39;100.00;102120.84;10535492;28;20419;-75
2022/07/15 03:54:01;;;;;;;22.27;10.52;;;;;;;9.47;100.00;102139.66;10570597;28;20027;-75
2022/07/15 03:59:02;;;;;;;13.90;8.70;;;;;;;9.51;100.00;102139.09;10529114;28;20131;-75
2022/07/15 04:04:03;;;;;;;27.30;10.13;;;;;;;9.63;100.00;102149.53;10529058;28;20040;-76
2022/07/15 04:09:03;;;;;;;22.08;9.68;;;;;;;9.77;100.00;102148.81;10531864;28;21941;-75
2022/07/15 04:14:05;;;;;;;15.68;8.20;;;;;;;9.97;100.00;102145.00;10536866;28;20032;-75
2022/07/15 04:19:06;;;;;;;17.00;8.88;;;;;;;10.16;100.00;102146.28;10549387;28;20032;-76
2022/07/15 04:24:06;;;;;;;12.52;7.18;;;;;;;10.39;100.00;102145.31;10569372;28;20039;-75
2022/07/15 04:29:07;;;;;;;11.30;5.97;;;;;;;10.50;99.59;102146.03;10528938;28;20495;-75
2022/07/15 04:34:08;;;;;;;13.43;7.50;;;;;;;10.67;98.45;102155.06;10526659;28;20486;-75
2022/07/15 04:39:08;;;;;;;16.88;7.63;;;;;;;11.04;97.97;102155.72;10530431;28;20083;-75
2022/07/15 04:44:09;;;;;;;12.25;7.43;;;;;;;11.48;97.46;102155.09;10537556;28;20032;-75
2022/07/15 04:54:28;;;;;;;18.27;7.30;;;;;;;12.22;90.97;102156.22;10552283;28;20036;-74
2022/07/15 04:59:35;;;;;;;17.70;6.88;;;;;;;12.23;89.79;102149.28;10551991;28;20384;-74
2022/07/15 05:04:36;;;;;;;13.10;5.75;;;;;;;12.41;89.87;102153.00;10541363;27;20043;-75
2022/07/15 05:09:36;;;;;;;13.57;6.03;;;;;;;12.51;89.90;102146.59;10517919;28;20113;-75
2022/07/15 05:14:40;;;;;;;13.02;7.07;;;;;;;12.77;89.19;102145.53;10523859;28;20055;-75
2022/07/15 05:19:40;;;;;;;11.48;5.45;;;;;;;13.02;87.86;102140.78;10549134;28;20062;-75
2022/07/15 05:24:41;;;;;;;10.82;5.45;;;;;;;13.20;86.32;102144.47;10555024;28;20046;-76
2022/07/15 05:29:41;;;;;;;13.43;5.75;;;;;;;13.40;85.51;102141.19;10524371;28;20028;-75
2022/07/15 05:34:42;;;;;;;15.15;5.70;;;;;;;13.36;83.11;102153.25;10515858;28;20439;-75
2022/07/15 05:39:55;;;;;;;12.80;4.63;;;;;;;13.39;84.56;102155.16;10564573;28;20064;-73
2022/07/15 05:44:55;;;;;;;11.43;4.95;;;;;;;14.22;83.09;102145.66;10528329;28;20036;-73
2022/07/15 05:49:56;;;;;;;11.25;5.35;;;;;;;15.04;78.99;102149.88;10506294;28;20511;-74
2022/07/15 05:54:56;;;;;;;13.57;5.30;;;;;;;16.73;73.15;102141.78;10541688;28;20115;-74
2022/07/15 05:59:57;;;;;;;9.93;4.22;;;;;;;18.19;66.20;102142.28;10517733;28;20178;-73
2022/07/15 06:04:58;;;;;;;7.83;4.27;;;;;;;19.13;61.94;102140.19;10525388;28;20551;-74
2022/07/15 06:09:58;;;;;;;9.27;3.53;;;;;;;20.58;55.87;102138.28;10519582;28;20040;-75
2022/07/15 06:14:59;;;;;;;11.40;5.17;;;;;;;21.12;53.81;102136.09;10496640;28;20057;-74
2022/07/15 06:20:00;;;;;;;52.10;32.60;;;;;;;22.13;50.43;102133.88;10506038;28;20527;-75
2022/07/15 06:25:01;;;;;;;12.48;4.43;;;;;;;22.35;50.49;102128.97;10539000;28;20040;-74
2022/07/15 06:30:01;;;;;;;11.27;3.57;;;;;;;22.94;49.04;102135.38;10530138;28;20431;-74
2022/07/15 06:35:02;;;;;;;12.20;3.37;;;;;;;23.82;45.73;102130.41;10536552;28;20032;-75
2022/07/15 06:40:03;;;;;;;11.52;3.75;;;;;;;23.87;45.79;102135.81;10521966;28;20048;-74
2022/07/15 06:45:05;;;;;;;12.48;3.10;;;;;;;24.29;44.24;102131.00;10527870;28;20047;-75
2022/07/15 06:50:06;;;;;;;13.43;3.08;;;;;;;24.51;42.09;102142.78;10513689;28;20042;-74
2022/07/15 06:55:07;;;;;;;10.63;3.05;;;;;;;24.70;42.44;102134.94;10526911;28;20029;-74
2022/07/15 07:00:09;;;;;;;9.43;4.07;;;;;;;25.26;40.65;102130.03;10527541;28;20043;-75
2022/07/15 07:05:10;;;;;;;6.60;2.85;;;;;;;24.96;41.86;102134.28;10502762;28;20032;-74
2022/07/15 07:10:11;;;;;;;7.73;3.17;;;;;;;24.03;42.58;102137.81;10527078;28;20428;-75
2022/07/15 07:15:12;;;;;;;8.23;4.57;;;;;;;25.51;39.47;102139.16;10572547;28;20472;-75
2022/07/15 07:20:13;;;;;;;8.43;2.55;;;;;;;25.22;39.89;102142.53;10534734;28;20487;-75
2022/07/15 07:25:14;;;;;;;11.83;3.10;;;;;;;24.09;41.09;102129.00;10510546;28;20123;-76
2022/07/15 07:30:14;;;;;;;5.57;2.50;;;;;;;25.64;40.28;102137.41;10505597;28;20454;-76
2022/07/15 07:35:15;;;;;;;7.25;3.00;;;;;;;25.11;42.05;102137.06;10482086;28;20094;-76
2022/07/15 07:40:18;;;;;;;8.80;2.70;;;;;;;25.36;40.49;102135.47;10468258;28;20064;-77
2022/07/15 07:45:19;;;;;;;6.47;2.88;;;;;;;27.06;36.40;102130.59;10498659;28;20311;-75
2022/07/15 07:50:19;;;;;;;9.70;3.30;;;;;;;27.27;35.99;102143.97;10560750;28;20107;-75
2022/07/15 07:55:20;;;;;;;6.75;1.88;;;;;;;28.01;34.49;102133.88;10525989;28;20138;-74
2022/07/15 08:00:21;;;;;;;5.53;1.65;;;;;;;27.42;32.12;102139.47;10505419;28;20127;-74
2022/07/15 08:05:22;;;;;;;;;;;;;;;27.67;32.25;102136.72;10557249;28;20043;-75
2022/07/15 08:10:22;;;;;;;7.37;2.63;;;;;;;27.30;34.99;102139.50;10514546;28;19977;-74
2022/07/15 08:15:23;;;;;;;4.20;2.23;;;;;;;26.71;34.61;102134.16;10526696;28;20042;-74
2022/07/15 08:20:23;;;;;;;9.87;2.53;;;;;;;27.70;34.00;102137.63;10542849;28;20737;-74
2022/07/15 08:25:26;;;;;;;5.40;1.88;;;;;;;29.29;29.61;102134.72;10550294;28;20044;-76
2022/07/15 08:30:27;;;;;;;4.63;1.90;;;;;;;27.88;33.65;102138.44;10547562;28;20047;-75
2022/07/15 08:35:27;;;;;;;6.10;2.40;;;;;;;25.95;37.41;102150.97;10490678;28;20039;-75
2022/07/15 08:40:28;;;;;;;4.13;1.83;;;;;;;22.43;42.24;102159.34;10507079;28;20044;-74
2022/07/15 08:45:29;;;;;;;5.33;2.77;;;;;;;20.08;45.92;102171.47;10503606;28;20131;-74
2022/07/15 08:50:29;;;;;;;4.97;1.57;;;;;;;21.97;46.90;102153.09;10527115;28;20369;-74
2022/07/15 08:55:30;;;;;;;6.23;1.70;;;;;;;23.26;39.64;102147.44;10472735;28;20850;-74
2022/07/15 09:00:31;;;;;;;5.63;1.73;;;;;;;21.31;45.39;102161.38;10507162;28;20032;-75
2022/07/15 09:05:35;;;;;;;2.73;0.90;;;;;;;24.58;35.96;102144.63;10524995;28;20035;-75
2022/07/15 09:10:58;;;;;;;4.40;1.52;;;;;;;27.82;32.76;102136.66;10525915;28;20060;-74
2022/07/15 09:16:05;;;;;;;3.70;1.30;;;;;;;29.99;31.30;102128.53;10541513;28;20361;-73
2022/07/15 09:21:28;;;;;;;11.38;2.47;;;;;;;28.92;30.32;102129.69;10514670;28;20036;-73
2022/07/15 09:26:33;;;;;;;5.88;1.35;;;;;;;24.31;36.21;102142.59;10524763;28;20032;-74
2022/07/15 09:36:57;;;;;;;16.10;1.40;;;;;;;20.60;47.50;102143.59;10508148;28;20043;-75
2022/07/15 09:42:04;;;;;;;;;;;;;;;21.66;46.60;102139.13;10525322;28;20032;-75
2022/07/15 09:47:05;;;;;;;3.53;1.15;;;;;;;25.20;37.88;102134.47;10507083;28;19920;-75
2022/07/15 09:52:07;;;;;;;9.20;2.23;;;;;;;24.14;38.47;102139.72;10456481;28;20386;-75
2022/07/15 09:57:09;;;;;;;5.65;1.67;;;;;;;21.97;42.51;102150.44;10505966;28;20107;-76
2022/07/15 10:02:10;;;;;;;7.45;1.50;;;;;;;23.70;40.61;102140.94;10505037;28;20028;-76
2022/07/15 10:07:11;;;;;;;5.30;1.60;;;;;;;26.72;35.87;102133.25;10504192;28;20036;-75
2022/07/15 10:12:18;;;;;;;5.20;1.95;;;;;;;29.14;27.28;102124.09;10503594;28;20031;-75
2022/07/15 10:17:46;;;;;;;5.03;1.40;;;;;;;30.02;29.88;102120.41;10507041;28;20036;-76
2022/07/15 10:23:01;;;;;;;4.47;1.35;;;;;;;30.14;29.16;102116.63;10523151;28;20399;-75
2022/07/15 10:28:09;;;;;;;5.65;1.50;;;;;;;31.06;24.38;102120.53;10523838;28;20036;-76
2022/07/15 10:33:16;;;;;;;7.60;1.58;;;;;;;31.18;25.95;102112.22;10523761;28;20037;-76
2022/07/15 10:38:20;;;;;;;6.05;2.33;;;;;;;31.33;25.98;102108.31;10540098;28;20028;-76
2022/07/15 10:43:20;;;;;;;12.10;4.22;;;;;;;26.45;32.48;102113.56;10523844;28;20032;-75
2022/07/15 10:48:25;;;;;;;5.47;2.17;;;;;;;24.75;38.15;102104.69;10505269;28;20071;-75
2022/07/15 10:53:27;;;;;;;2.33;1.02;;;;;;;25.21;33.91;102095.19;10556653;28;20041;-76
2022/07/15 10:58:27;;;;;;;5.28;1.60;;;;;;;25.67;33.28;102091.00;10521436;28;20123;-76
2022/07/15 11:03:28;;;;;;;4.97;1.43;;;;;;;28.19;29.66;102084.50;10505063;28;20118;-76
2022/07/15 11:08:35;;;;;;;5.13;1.70;;;;;;;26.39;30.74;102082.25;10526387;28;20054;-75
2022/07/15 11:13:35;;;;;;;3.83;1.35;;;;;;;24.91;35.06;102078.91;10532081;28;20043;-76
2022/07/15 11:18:45;;;;;;;3.60;1.20;;;;;;;25.81;31.01;102070.50;10528852;28;20808;-76
2022/07/15 11:23:46;;;;;;;4.38;1.10;;;;;;;24.60;35.29;102073.28;10530914;28;20037;-76
2022/07/15 11:28:54;;;;;;;5.07;1.60;;;;;;;23.12;37.41;102085.81;10529778;28;20165;-76
2022/07/15 11:33:55;;;;;;;3.20;1.40;;;;;;;22.17;40.22;102077.97;10512274;28;20281;-76
2022/07/15 11:38:58;;;;;;;4.72;1.48;;;;;;;24.12;40.13;102063.94;10527601;28;20051;-76
2022/07/15 11:49:44;;;;;;;8.90;1.70;;;;;;;26.99;33.63;102056.28;10529710;28;20036;-76
2022/07/15 11:54:45;;;;;;;9.90;2.63;;;;;;;27.40;32.31;102058.84;10522207;28;20025;-75
2022/07/15 11:59:56;;;;;;;7.17;3.03;;;;;;;24.31;36.97;102057.00;10529942;28;20114;-75
2022/07/15 12:05:04;;;;;;;6.40;1.10;;;;;;;24.33;36.60;102049.88;10570323;28;20384;-75
2022/07/15 12:10:05;;;;;;;13.30;4.82;;;;;;;27.23;32.78;102049.97;10551451;28;20039;-75
2022/07/15 12:15:06;;;;;;;4.47;1.33;;;;;;;26.06;33.08;102047.28;10569131;28;20039;-75
2022/07/15 12:20:07;;;;;;;3.20;1.10;;;;;;;26.17;30.72;102042.00;10503073;28;20123;-75
2022/07/15 12:25:20;;;;;;;3.35;1.17;;;;;;;25.02;33.29;102040.59;10508213;28;20039;-75
2022/07/15 12:30:37;;;;;;;5.45;1.00;;;;;;;23.21;38.83;102047.63;10509272;28;20085;-76
2022/07/15 12:35:38;;;;;;;7.03;1.27;;;;;;;26.39;33.76;102039.31;10467738;28;20457;-76
2022/07/15 12:40:38;;;;;;;3.73;0.93;;;;;;;28.71;27.08;102034.69;10561406;28;20309;-76
2022/07/15 12:45:39;;;;;;;2.17;0.80;;;;;;;29.82;26.05;102025.34;10568674;28;20075;-75
2022/07/15 12:50:43;;;;;;;3.50;0.80;;;;;;;26.37;29.95;102041.97;10537355;28;20515;-74
2022/07/15 12:55:47;;;;;;;7.70;1.77;;;;;;;26.64;29.59;102042.00;10514308;28;20055;-76
2022/07/15 13:00:48;;;;;;;2.13;0.80;;;;;;;24.69;35.07;102052.84;10460766;28;20059;-78
2022/07/15 13:05:52;;;;;;;3.03;1.40;;;;;;;24.94;37.99;102035.22;10520287;28;20047;-76
2022/07/15 13:10:55;;;;;;;2.42;0.95;;;;;;;25.60;36.61;102034.69;10513358;28;20046;-76
2022/07/15 13:15:58;;;;;;;2.53;0.82;;;;;;;27.78;31.70;102032.69;10471761;28;20085;-74
2022/07/15 13:20:59;;;;;;;5.30;1.58;;;;;;;26.30;32.00;102039.31;10459823;28;20050;-77
2022/07/15 13:26:00;;;;;;;9.07;1.97;;;;;;;24.46;36.23;102037.50;10513605;28;20070;-75
2022/07/15 13:31:00;;;;;;;8.13;1.00;;;;;;;23.56;37.67;102041.88;10508406;28;20098;-77
2022/07/15 13:36:03;;;;;;;6.00;1.20;;;;;;;23.69;37.68;102040.28;10524268;28;20487;-75
2022/07/15 13:41:04;;;;;;;3.40;0.90;;;;;;;23.61;38.28;102033.06;10506506;28;20040;-75
2022/07/15 13:46:04;;;;;;;3.77;1.10;;;;;;;24.30;38.61;102028.47;10539036;28;20055;-75
2022/07/15 13:51:23;;;;;;;2.37;0.80;;;;;;;26.56;33.63;102028.56;10503009;28;20046;-75
2022/07/15 13:56:23;;;;;;;9.82;1.38;;;;;;;28.86;29.27;102027.38;10506234;28;20051;-75
2022/07/15 14:01:26;;;;;;;5.17;1.97;;;;;;;28.51;30.25;102018.75;10487375;28;20148;-76
2022/07/15 14:06:26;;;;;;;5.78;2.60;;;;;;;26.59;32.29;102019.63;10469210;28;20037;-77
2022/07/15 14:11:27;;;;;;;5.10;1.10;;;;;;;27.20;32.08;102012.34;10488239;28;20119;-76
2022/07/15 14:16:27;;;;;;;7.07;3.70;;;;;;;28.57;32.68;102015.06;10465029;28;20128;-75
2022/07/15 14:21:28;;;;;;;4.07;1.87;;;;;;;27.04;31.57;102014.19;10462293;28;20040;-74
2022/07/15 14:26:29;;;;;;;4.77;2.27;;;;;;;27.93;29.69;102004.81;10499466;28;20484;-75
2022/07/15 14:31:29;;;;;;;5.60;1.00;;;;;;;27.58;32.94;102008.63;10497177;28;20507;-78
2022/07/15 14:36:30;;;;;;;1.60;0.70;;;;;;;26.46;32.45;102008.91;10461471;28;20093;-78
2022/07/15 14:41:30;;;;;;;2.37;0.80;;;;;;;24.95;34.89;102007.56;10462616;28;20032;-77
2022/07/15 14:46:31;;;;;;;2.30;1.10;;;;;;;23.99;35.13;102004.06;10468584;28;20123;-76
2022/07/15 14:51:31;;;;;;;3.57;1.10;;;;;;;23.72;37.91;102005.56;10451913;28;20211;-75
2022/07/15 14:56:32;;;;;;;2.90;1.00;;;;;;;23.89;37.71;102003.97;10468925;28;20071;-74
2022/07/15 15:01:32;;;;;;;5.97;1.67;;;;;;;23.78;39.21;101996.72;10504030;28;20052;-74
2022/07/15 15:06:33;;;;;;;7.43;1.20;;;;;;;25.22;35.12;101990.72;10510871;28;20051;-74
2022/07/15 15:11:33;;;;;;;2.17;1.10;;;;;;;25.66;34.25;101990.91;10520784;28;20036;-74
2022/07/15 15:16:34;;;;;;;11.37;1.10;;;;;;;24.49;36.83;101986.69;10528722;28;20127;-77
2022/07/15 15:21:36;;;;;;;2.47;0.80;;;;;;;23.95;38.59;101981.75;10528315;28;20400;-75
2022/07/15 15:26:36;;;;;;;3.05;1.42;;;;;;;22.73;40.15;101990.03;10533434;28;20032;-74
2022/07/15 15:31:37;;;;;;;6.40;1.03;;;;;;;22.10;40.10;101984.53;10555961;28;20125;-74
2022/07/15 15:36:37;;;;;;;3.83;0.70;;;;;;;21.98;41.67;101987.88;10510657;28;20036;-74
2022/07/15 15:41:38;;;;;;;4.68;0.90;;;;;;;22.07;42.05;101975.59;10568541;28;20074;-75
2022/07/15 15:46:39;;;;;;;2.97;0.87;;;;;;;22.86;38.95;101972.41;10553689;28;20050;-74
2022/07/15 15:51:39;;;;;;;3.87;1.63;;;;;;;22.79;39.95;101975.00;10515697;28;20399;-73
2022/07/15 15:56:41;;;;;;;4.17;1.90;;;;;;;22.70;39.96;101971.31;10527568;28;20127;-73
2022/07/15 16:01:42;;;;;;;2.20;0.90;;;;;;;22.52;39.30;101960.38;10493859;28;20043;-75
2022/07/15 16:06:43;;;;;;;4.23;1.30;;;;;;;22.86;39.20;101960.88;10503234;28;20040;-75
2022/07/15 16:11:43;;;;;;;2.17;1.10;;;;;;;22.51;39.84;101959.44;10533208;28;20036;-75
2022/07/15 16:16:44;;;;;;;4.97;2.40;;;;;;;22.48;39.73;101945.19;10520152;28;20047;-74
2022/07/15 16:27:04;;;;;;;4.00;1.60;;;;;;;22.37;40.20;101940.56;10527624;28;20040;-76
2022/07/15 16:32:05;;;;;;;4.70;2.30;;;;;;;22.07;41.24;101944.50;10507077;28;20033;-75
2022/07/15 16:37:05;;;;;;;2.57;1.20;;;;;;;21.67;41.47;101942.00;10526956;28;20502;-76
2022/07/15 16:42:06;;;;;;;5.45;1.60;;;;;;;20.82;43.60;101942.94;10549922;28;20059;-75
2022/07/15 16:47:07;;;;;;;3.20;1.20;;;;;;;20.22;46.00;101942.38;10528399;28;20488;-76
2022/07/15 16:52:07;;;;;;;2.97;1.10;;;;;;;19.83;47.14;101933.38;10526384;28;20118;-76
2022/07/15 16:57:08;;;;;;;64.50;7.55;;;;;;;20.24;46.42;101933.56;10537293;28;20125;-76
2022/07/15 17:02:09;;;;;;;2.97;1.30;;;;;;;20.89;43.74;101927.97;10555461;28;20044;-76
2022/07/15 17:07:10;;;;;;;4.93;1.30;;;;;;;21.27;44.88;101933.22;10532739;28;20046;-76
2022/07/15 17:12:10;;;;;;;3.30;1.88;;;;;;;21.21;42.48;101919.78;10567376;28;20034;-76
2022/07/15 17:17:11;;;;;;;4.35;1.25;;;;;;;20.89;43.84;101926.25;10515391;28;20066;-76
2022/07/15 17:22:11;;;;;;;9.45;2.63;;;;;;;20.58;46.61;101933.50;10549037;28;20032;-76
2022/07/15 17:27:12;;;;;;;4.47;1.85;;;;;;;20.54;43.95;101929.84;10557882;28;20124;-76
2022/07/15 17:32:12;;;;;;;3.17;1.40;;;;;;;20.62;45.65;101934.44;10540188;28;20038;-76
2022/07/15 17:37:13;;;;;;;3.25;1.50;;;;;;;20.42;47.88;101937.53;10514780;28;20051;-77
2022/07/15 17:42:13;;;;;;;6.97;2.00;;;;;;;20.06;47.75;101938.44;10566896;28;20136;-76
2022/07/15 17:47:14;;;;;;;6.35;3.25;;;;;;;19.80;48.78;101935.97;10556288;28;20070;-74
2022/07/15 17:52:14;;;;;;;6.28;1.88;;;;;;;19.62;50.30;101931.94;10523242;28;20048;-77
2022/07/15 17:57:15;;;;;;;7.80;1.90;;;;;;;19.56;50.38;101929.13;10464007;28;20044;-76
2022/07/15 18:02:15;;;;;;;2.63;1.75;;;;;;;19.52;49.36;101922.84;10484951;28;20084;-76
2022/07/15 18:07:16;;;;;;;4.38;1.55;;;;;;;19.54;49.93;101927.31;10526604;28;20050;-75
2022/07/15 18:12:17;;;;;;;4.00;1.70;;;;;;;19.46;52.11;101932.38;10523712;28;20093;-76
2022/07/15 18:17:19;;;;;;;3.42;1.38;;;;;;;19.24;48.86;101922.94;10509259;28;20123;-76
2022/07/15 18:22:19;;;;;;;10.10;4.45;;;;;;;19.09;51.95;101929.59;10532627;28;20123;-76
2022/07/15 18:27:20;;;;;;;2.67;1.40;;;;;;;18.85;52.38;101921.75;10532193;28;20040;-75
2022/07/15 18:32:20;;;;;;;4.28;1.55;;;;;;;18.66;51.17;101926.50;10532289;28;20044;-75
2022/07/15 18:37:23;;;;;;;6.70;1.50;;;;;;;18.57;51.19;101926.19;10513978;28;20043;-74
2022/07/15 18:42:24;;;;;;;4.05;1.75;;;;;;;18.37;54.12;101922.94;10508730;28;20119;-75
2022/07/15 18:47:25;;;;;;;3.15;1.85;;;;;;;18.05;55.90;101924.56;10512412;28;20046;-74
2022/07/15 18:52:25;;;;;;;5.78;2.55;;;;;;;17.68;57.62;101920.63;10511592;28;20064;-75
2022/07/15 18:57:26;;;;;;;12.82;2.55;;;;;;;17.35;61.64;101920.28;10554863;28;20031;-75
2022/07/15 19:02:29;;;;;;;5.50;1.90;;;;;;;17.07;60.85;101920.19;10550527;28;20035;-75
2022/07/15 19:07:29;;;;;;;4.88;1.58;;;;;;;16.83;62.39;101925.38;10558467;28;20032;-75
2022/07/15 19:12:30;;;;;;;2.67;1.30;;;;;;;16.71;65.49;101929.34;10553537;28;20047;-75
2022/07/15 19:17:42;;;;;;;3.50;1.60;;;;;;;16.53;66.82;101934.84;10506609;28;20036;-74
2022/07/15 19:22:45;;;;;;;3.75;1.45;;;;;;;16.34;66.59;101932.28;10529638;28;20032;-73
2022/07/15 19:27:46;;;;;;;4.80;1.38;;;;;;;16.09;68.14;101933.91;10518773;28;20399;-74
2022/07/15 19:32:47;;;;;;;5.63;1.80;;;;;;;15.91;69.44;101936.66;10510647;28;20035;-74
2022/07/15 19:37:47;;;;;;;5.40;1.30;;;;;;;15.66;69.64;101938.19;10510992;28;20448;-73
2022/07/15 19:42:49;;;;;;;2.67;1.70;;;;;;;15.38;70.96;101939.59;10498203;28;20485;-74
2022/07/15 19:47:50;;;;;;;8.60;1.80;;;;;;;15.18;71.18;101947.50;10539844;28;20616;-74
2022/07/15 19:52:51;;;;;;;2.97;1.77;;;;;;;15.00;72.32;101963.41;10539974;28;20036;-75
2022/07/15 19:57:51;;;;;;;2.40;1.42;;;;;;;14.91;72.87;101955.94;10523802;28;20486;-74
2022/07/15 20:02:54;;;;;;;6.10;1.52;;;;;;;14.81;73.91;101959.88;10521646;27;20044;-73
2022/07/15 20:07:54;;;;;;;;;;;;;;;14.62;73.98;101967.69;10507584;28;20488;-74
2022/07/15 20:12:57;;;;;;;3.75;1.85;;;;;;;14.48;74.12;101967.00;10511666;28;19920;-73
2022/07/15 20:17:57;;;;;;;4.80;2.15;;;;;;;14.20;75.23;101969.19;10490449;28;20830;-72
2022/07/15 20:22:59;;;;;;;5.93;2.13;;;;;;;14.13;75.31;101966.16;10528548;28;20118;-75
2022/07/15 20:28:00;;;;;;;3.00;1.50;;;;;;;14.00;75.51;101967.28;10549697;28;20070;-75
2022/07/15 20:33:00;;;;;;;5.07;2.30;;;;;;;13.83;76.58;101969.94;10550602;28;20110;-76
2022/07/15 20:38:01;;;;;;;5.22;2.53;;;;;;;13.67;77.02;101964.69;10500208;28;20039;-74
2022/07/15 20:43:02;;;;;;;5.50;2.20;;;;;;;13.43;77.30;101966.09;10511954;28;20043;-74
2022/07/15 20:48:02;;;;;;;7.05;2.83;;;;;;;13.26;78.39;101974.75;10452869;28;20115;-74
2022/07/15 20:53:03;;;;;;;8.95;3.25;;;;;;;13.18;79.28;101959.47;10550745;28;20039;-76
2022/07/15 20:58:03;;;;;;;11.18;2.80;;;;;;;13.16;79.88;101961.13;10565050;28;20193;-73
2022/07/15 21:03:04;;;;;;;4.72;2.10;;;;;;;13.11;80.72;101966.97;10549734;28;20035;-73
2022/07/15 21:08:05;;;;;;;5.50;2.28;;;;;;;12.91;80.97;101970.28;10565812;28;20036;-74
2022/07/15 21:13:05;;;;;;;5.95;2.80;;;;;;;12.87;82.23;101967.41;10567992;28;20498;-74
2022/07/15 21:18:06;;;;;;;6.25;2.38;;;;;;;12.90;82.41;101959.69;10565700;28;20127;-74
2022/07/15 21:23:06;;;;;;;6.18;3.10;;;;;;;12.77;81.55;101961.66;10550247;28;20023;-74
2022/07/15 21:28:07;;;;;;;16.60;3.38;;;;;;;12.68;82.15;101965.44;10528190;28;20042;-74
2022/07/15 21:33:07;;;;;;;4.00;2.50;;;;;;;12.51;83.04;101967.13;10525991;28;20047;-73
2022/07/15 21:38:08;;;;;;;6.22;3.50;;;;;;;12.47;82.90;101964.34;10561488;28;20039;-74
2022/07/15 21:43:08;;;;;;;3.88;2.67;;;;;;;12.42;83.72;101965.78;10541498;28;20036;-73
2022/07/15 21:48:09;;;;;;;6.68;3.35;;;;;;;12.37;84.09;101966.31;10564672;28;20032;-74
2022/07/15 21:53:09;;;;;;;20.63;3.25;;;;;;;12.27;84.41;101968.41;10567129;28;20039;-74
2022/07/15 21:58:10;;;;;;;9.80;3.42;;;;;;;12.17;85.66;101959.13;10481068;28;20090;-74
2022/07/15 22:03:11;;;;;;;6.53;3.20;;;;;;;12.08;85.65;101969.06;10466049;28;20036;-74
2022/07/15 22:08:12;;;;;;;9.05;3.25;;;;;;;11.94;86.25;101957.72;10541903;28;20488;-74
2022/07/15 22:13:13;;;;;;;6.60;4.03;;;;;;;11.87;87.02;101966.94;10490803;28;20131;-74
2022/07/15 22:18:13;;;;;;;6.38;3.78;;;;;;;11.84;88.00;101951.03;10562725;28;20429;-73
2022/07/15 22:23:14;;;;;;;6.72;3.67;;;;;;;11.80;88.03;101943.78;10531671;28;20039;-74
2022/07/15 22:28:15;;;;;;;7.40;3.65;;;;;;;11.84;87.96;101952.72;10529389;28;20108;-73
2022/07/15 22:33:16;;;;;;;6.55;3.50;;;;;;;11.90;88.73;101948.78;10506889;28;20036;-74
2022/07/15 22:38:16;;;;;;;5.25;3.40;;;;;;;12.02;88.64;101955.59;10507267;28;20081;-73
2022/07/15 22:43:18;;;;;;;6.55;3.67;;;;;;;12.07;88.26;101953.22;10507154;28;20029;-73
2022/07/15 22:48:18;;;;;;;7.32;3.88;;;;;;;11.98;87.90;101951.81;10540375;28;20037;-74
2022/07/15 22:53:19;;;;;;;11.38;3.58;;;;;;;11.87;88.63;101966.03;10565318;28;20127;-74
2022/07/15 22:58:20;;;;;;;7.10;5.22;;;;;;;11.77;89.17;101966.28;10510017;28;20532;-74
2022/07/15 23:03:20;;;;;;;5.88;3.30;;;;;;;11.70;89.49;101972.91;10535337;28;20028;-73
2022/07/15 23:08:21;;;;;;;7.90;3.22;;;;;;;11.65;89.84;101971.72;10519978;28;20043;-73
2022/07/15 23:13:22;;;;;;;6.15;2.97;;;;;;;11.63;89.97;101974.22;10496326;28;20105;-74
2022/07/15 23:18:22;;;;;;;6.22;4.38;;;;;;;11.60;89.59;101976.66;10530974;28;20121;-74
2022/07/15 23:23:23;;;;;;;16.90;6.00;;;;;;;11.60;89.42;101967.09;10496461;28;20127;-75
2022/07/15 23:28:23;;;;;;;6.63;4.45;;;;;;;11.58;89.81;101954.69;10560258;28;20044;-74